Time;durP1;ratioP1;P1;durP2;ratioP2;P2;SDS_P1;SDS_P2;PMS_P1;PMS_P2;Temp;Humidity;BMP_temperature;BMP_pressure;BME280_temperature;BME280_humidity;BME280_pressure;Samples;Min_cycle;Max_cycle;Signal;HPM_P1;HPM_P2
2021/03/04 00:00:09;;;;;;;38.58;19.38;;;-1.10;94.90;;;;;;5076229;28;20040;-92
2021/03/04 00:02:36;;;;;;;34.22;18.45;;;-1.10;95.20;;;;;;5076466;28;20028;-92
2021/03/04 00:05:03;;;;;;;31.27;16.17;;;-1.10;95.20;;;;;;5076316;28;20024;-92
2021/03/04 00:07:29;;;;;;;26.92;14.68;;;-1.20;95.00;;;;;;5076393;28;20033;-92
2021/03/04 00:09:54;;;;;;;25.63;14.40;;;-1.10;94.60;;;;;;5075930;28;20027;-92
2021/03/04 00:12:20;;;;;;;25.90;15.68;;;-1.10;94.50;;;;;;5076308;28;20032;-92
2021/03/04 00:14:46;;;;;;;24.70;15.45;;;-1.00;94.60;;;;;;5075917;28;20117;-93
2021/03/04 00:17:12;;;;;;;23.13;14.38;;;-1.10;94.80;;;;;;5085012;28;20027;-92
2021/03/04 00:19:37;;;;;;;24.30;13.32;;;-1.10;94.70;;;;;;5086577;28;20063;-92
2021/03/04 00:22:04;;;;;;;25.52;14.77;;;-1.00;94.60;;;;;;5076304;28;20020;-92
2021/03/04 00:24:29;;;;;;;28.80;14.38;;;-1.10;94.60;;;;;;5075842;28;20020;-93
2021/03/04 00:26:55;;;;;;;25.33;14.88;;;-1.10;94.50;;;;;;5075481;28;20162;-92
2021/03/04 00:29:21;;;;;;;31.05;15.98;;;-1.10;94.30;;;;;;5075957;28;20032;-92
2021/03/04 00:31:47;;;;;;;35.30;18.40;;;-1.10;94.30;;;;;;5075814;28;20032;-92
2021/03/04 00:34:13;;;;;;;33.50;18.60;;;-1.10;94.60;;;;;;5075745;28;20025;-92
2021/03/04 00:36:38;;;;;;;38.47;21.35;;;-1.10;94.30;;;;;;5074590;28;20047;-92
2021/03/04 00:39:08;;;;;;;43.90;23.17;;;-1.20;94.60;;;;;;5074424;28;20031;-92
2021/03/04 00:41:35;;;;;;;47.80;24.55;;;-1.20;94.80;;;;;;5074252;28;20016;-92
2021/03/04 00:44:03;;;;;;;44.67;23.45;;;-1.30;94.80;;;;;;5074550;28;20029;-92
2021/03/04 00:46:29;;;;;;;44.88;22.83;;;-1.30;94.90;;;;;;5074264;28;20024;-92
2021/03/04 00:48:54;;;;;;;45.17;22.27;;;-1.40;95.00;;;;;;5074830;28;20025;-92
2021/03/04 00:51:20;;;;;;;40.53;20.92;;;-1.40;95.00;;;;;;5074369;28;20036;-92
2021/03/04 00:53:46;;;;;;;42.20;22.10;;;-1.40;94.60;;;;;;5073879;28;20040;-91
2021/03/04 00:56:12;;;;;;;44.08;23.80;;;-1.40;94.80;;;;;;5074036;28;20055;-92
2021/03/04 00:58:37;;;;;;;50.95;24.02;;;-1.50;94.50;;;;;;5074111;28;20020;-92
2021/03/04 01:01:05;;;;;;;52.50;24.30;;;-1.50;95.00;;;;;;5073952;28;20111;-92
2021/03/04 01:03:31;;;;;;;69.10;28.55;;;-1.50;94.90;;;;;;5073703;28;20020;-91
2021/03/04 01:05:56;;;;;;;77.13;32.00;;;-1.60;95.40;;;;;;5073580;28;20514;-91
2021/03/04 01:08:22;;;;;;;69.35;29.38;;;-1.60;95.00;;;;;;5073693;28;20063;-91
2021/03/04 01:10:48;;;;;;;74.25;27.90;;;-1.60;94.70;;;;;;5073448;28;20493;-92
2021/03/04 01:13:14;;;;;;;66.40;27.58;;;-1.50;94.60;;;;;;5073427;28;20420;-91
2021/03/04 01:15:39;;;;;;;70.13;28.42;;;-1.50;94.50;;;;;;5073184;28;20473;-91
2021/03/04 01:18:06;;;;;;;66.90;29.58;;;-1.50;94.40;;;;;;5073171;28;20052;-91
2021/03/04 01:20:32;;;;;;;69.25;28.83;;;-1.50;94.40;;;;;;5073010;28;20470;-91
2021/03/04 01:22:58;;;;;;;71.47;30.33;;;-1.50;94.50;;;;;;5073063;28;20462;-91
2021/03/04 01:25:24;;;;;;;66.57;27.08;;;-1.50;94.50;;;;;;5073204;28;20070;-91
2021/03/04 01:27:52;;;;;;;63.88;25.73;;;-1.50;94.40;;;;;;5073416;28;20033;-91
2021/03/04 01:30:27;;;;;;;60.05;25.40;;;-1.50;94.40;;;;;;5073124;28;20037;-91
2021/03/04 01:32:52;;;;;;;55.10;24.23;;;-1.50;94.40;;;;;;5072797;28;20024;-91
2021/03/04 01:35:18;;;;;;;47.38;22.40;;;-1.50;94.30;;;;;;5073234;28;20028;-91
2021/03/04 01:37:44;;;;;;;50.53;24.85;;;-1.50;94.30;;;;;;5075076;28;20024;-91
2021/03/04 01:40:12;;;;;;;49.42;22.20;;;-1.50;94.80;;;;;;5074159;28;20062;-92
2021/03/04 01:42:38;;;;;;;45.25;22.40;;;-1.60;94.70;;;;;;5074362;28;20375;-91
2021/03/04 01:45:05;;;;;;;43.78;19.48;;;-1.60;94.70;;;;;;5074259;28;20060;-91
2021/03/04 01:47:31;;;;;;;42.78;20.58;;;-1.60;94.60;;;;;;5074667;28;20028;-90
2021/03/04 01:49:57;;;;;;;41.13;19.95;;;-1.60;94.60;;;;;;5074184;28;20024;-90
2021/03/04 01:52:25;;;;;;;47.53;22.33;;;-1.50;94.50;;;;;;5074279;28;20033;-91
2021/03/04 01:54:51;;;;;;;39.63;19.45;;;-1.50;94.70;;;;;;5073895;28;20090;-91
2021/03/04 01:57:17;;;;;;;43.85;20.30;;;-1.50;94.60;;;;;;5082613;28;20080;-90
2021/03/04 01:59:43;;;;;;;41.85;18.75;;;-1.60;94.70;;;;;;5084135;28;20024;-91
2021/03/04 02:02:08;;;;;;;37.95;19.02;;;-1.60;94.70;;;;;;5074353;28;20017;-91
2021/03/04 02:04:34;;;;;;;37.97;18.77;;;-1.60;94.90;;;;;;5073962;28;20056;-91
2021/03/04 02:07:34;;;;;;;39.92;19.17;;;-1.60;94.60;;;;;;5074117;28;20478;-91
2021/03/04 02:10:41;;;;;;;38.30;18.48;;;-1.50;94.60;;;;;;5073863;28;20379;-91
2021/03/04 02:13:40;;;;;;;41.60;20.25;;;-1.60;94.50;;;;;;5073665;28;20036;-91
2021/03/04 02:16:17;;;;;;;44.92;20.15;;;-1.60;94.70;;;;;;5040814;28;20056;-91
2021/03/04 02:19:04;;;;;;;34.70;18.85;;;-1.60;95.00;;;;;;5073754;28;20031;-91
2021/03/04 02:21:37;;;;;;;38.45;17.15;;;-1.60;94.80;;;;;;5073812;28;20039;-91
2021/03/04 02:24:21;;;;;;;31.65;16.30;;;-1.60;94.70;;;;;;5073823;28;20418;-91
2021/03/04 02:27:29;;;;;;;42.13;17.98;;;-1.60;94.60;;;;;;5073520;28;20025;-90
2021/03/04 02:29:59;;;;;;;39.53;19.73;;;-1.60;94.70;;;;;;5068958;28;20025;-91
2021/03/04 02:32:27;;;;;;;38.85;18.65;;;-1.60;94.90;;;;;;5073588;28;20135;-90
2021/03/04 02:35:07;;;;;;;34.58;16.50;;;-1.60;94.80;;;;;;5074309;28;20028;-91
2021/03/04 02:37:41;;;;;;;43.72;19.50;;;-1.60;94.80;;;;;;5072081;28;20024;-90
2021/03/04 02:40:12;;;;;;;38.53;19.40;;;-1.50;95.20;;;;;;5071945;28;20062;-91
2021/03/04 02:42:40;;;;;;;33.05;17.08;;;-1.60;95.20;;;;;;5072029;28;20020;-91
2021/03/04 02:45:07;;;;;;;36.20;19.10;;;-1.60;95.10;;;;;;5071783;28;20394;-91
2021/03/04 02:47:33;;;;;;;33.88;18.88;;;-1.50;95.10;;;;;;5072986;28;20107;-90
2021/03/04 02:50:00;;;;;;;32.58;17.42;;;-1.50;95.20;;;;;;5071672;28;20111;-90
2021/03/04 02:52:26;;;;;;;36.45;18.70;;;-1.50;95.20;;;;;;5071721;28;20459;-90
2021/03/04 02:54:53;;;;;;;34.47;17.27;;;-1.50;95.10;;;;;;5046899;28;20045;-91
2021/03/04 02:57:21;;;;;;;37.95;19.50;;;-1.50;94.90;;;;;;5035056;28;20017;-90
2021/03/04 02:59:48;;;;;;;31.00;17.95;;;-1.50;95.10;;;;;;5035231;28;20067;-90
2021/03/04 03:02:16;;;;;;;30.75;16.60;;;-1.50;94.90;;;;;;5034692;28;20172;-90
2021/03/04 03:04:43;;;;;;;35.30;18.92;;;-1.50;94.90;;;;;;5034730;28;20056;-91
2021/03/04 03:07:10;;;;;;;32.53;16.98;;;-1.60;95.10;;;;;;5035075;28;20079;-90
2021/03/04 03:09:38;;;;;;;31.88;18.25;;;-1.60;95.00;;;;;;5035042;28;20029;-91
2021/03/04 03:12:05;;;;;;;33.53;18.55;;;-1.60;95.00;;;;;;5034801;28;20075;-91
2021/03/04 03:14:31;;;;;;;33.83;18.42;;;-1.60;95.00;;;;;;5034510;28;20543;-91
2021/03/04 03:16:58;;;;;;;44.08;20.50;;;-1.60;95.00;;;;;;5035121;28;20068;-91
2021/03/04 03:19:25;;;;;;;38.17;20.05;;;-1.60;95.20;;;;;;5034391;28;20075;-90
2021/03/04 03:21:51;;;;;;;40.50;19.50;;;-1.70;95.30;;;;;;5052601;28;20021;-90
2021/03/04 03:24:17;;;;;;;30.10;16.38;;;-1.60;95.20;;;;;;5034606;28;20036;-90
2021/03/04 03:26:45;;;;;;;41.10;18.13;;;-1.60;95.00;;;;;;5034918;28;20089;-90
2021/03/04 03:29:11;;;;;;;40.95;18.58;;;-1.60;94.90;;;;;;5052276;28;20100;-89
2021/03/04 03:31:39;;;;;;;39.10;19.95;;;-1.60;94.80;;;;;;5034868;28;20036;-92
2021/03/04 03:34:05;;;;;;;42.53;21.50;;;-1.60;95.00;;;;;;5036101;28;20029;-94
2021/03/04 03:36:33;;;;;;;41.92;20.27;;;-1.70;95.10;;;;;;5038723;28;20025;-94
2021/03/04 03:39:02;;;;;;;39.40;18.35;;;-1.70;95.10;;;;;;5054351;28;20040;-95
2021/03/04 03:41:28;;;;;;;33.92;18.63;;;-1.70;94.90;;;;;;5037912;28;20025;-95
2021/03/04 03:43:55;;;;;;;32.92;18.67;;;-1.60;94.80;;;;;;5036041;28;20057;-95
2021/03/04 03:46:21;;;;;;;36.40;19.15;;;-1.60;94.70;;;;;;5036255;28;20029;-96
2021/03/04 03:48:49;;;;;;;37.95;18.75;;;-1.60;94.70;;;;;;5036393;28;20032;-95
2021/03/04 03:51:16;;;;;;;38.95;18.55;;;-1.60;94.70;;;;;;5036039;28;20079;-91
2021/03/04 03:53:43;;;;;;;45.03;21.85;;;-1.60;94.70;;;;;;5057948;28;20090;-92
2021/03/04 03:56:09;;;;;;;46.85;22.33;;;-1.60;94.90;;;;;;5056179;28;20017;-92
2021/03/04 03:58:38;;;;;;;58.47;27.23;;;-1.60;94.90;;;;;;5073672;28;20052;-91
2021/03/04 04:01:05;;;;;;;46.67;24.10;;;-1.60;95.00;;;;;;5056157;28;20021;-91
2021/03/04 04:03:33;;;;;;;50.70;23.17;;;-1.60;95.00;;;;;;5059776;28;20020;-92
2021/03/04 04:05:59;;;;;;;46.08;24.25;;;-1.60;94.90;;;;;;5077540;28;20410;-91
2021/03/04 04:08:28;;;;;;;47.28;23.40;;;-1.60;94.80;;;;;;5059850;28;20025;-91
2021/03/04 04:10:53;;;;;;;48.17;23.40;;;-1.60;94.80;;;;;;5059534;28;20052;-92
2021/03/04 04:13:19;;;;;;;54.25;26.42;;;-1.60;94.90;;;;;;5059355;28;20056;-91
2021/03/04 04:15:45;;;;;;;57.17;27.48;;;-1.60;94.80;;;;;;5059728;28;20037;-91
2021/03/04 04:18:11;;;;;;;53.78;24.95;;;-1.60;94.70;;;;;;5059328;28;20055;-91
2021/03/04 04:20:37;;;;;;;54.28;26.48;;;-1.60;94.90;;;;;;5059395;28;20171;-92
2021/03/04 04:23:03;;;;;;;55.92;25.42;;;-1.60;94.90;;;;;;5077221;28;20067;-92
2021/03/04 04:25:29;;;;;;;60.35;26.45;;;-1.60;94.90;;;;;;5059348;28;20021;-92
2021/03/04 04:27:56;;;;;;;55.22;25.80;;;-1.70;95.10;;;;;;5059282;28;20115;-93
2021/03/04 04:30:24;;;;;;;50.83;23.77;;;-1.70;94.90;;;;;;5059536;28;20027;-91
2021/03/04 04:32:50;;;;;;;47.75;22.80;;;-1.70;95.00;;;;;;5059805;28;20145;-91
2021/03/04 04:35:16;;;;;;;46.25;23.08;;;-1.60;95.00;;;;;;5059058;28;20032;-91
2021/03/04 04:37:43;;;;;;;47.30;22.73;;;-1.70;95.10;;;;;;5075209;28;20054;-91
2021/03/04 04:40:09;;;;;;;44.70;21.90;;;-1.70;95.10;;;;;;5057793;28;20017;-91
2021/03/04 04:42:36;;;;;;;43.67;21.63;;;-1.60;95.00;;;;;;5075511;28;20029;-91
2021/03/04 04:45:05;;;;;;;41.97;21.52;;;-1.60;94.90;;;;;;5057535;28;20429;-91
2021/03/04 04:47:31;;;;;;;43.97;21.00;;;-1.60;94.80;;;;;;5074974;28;20035;-92
2021/03/04 04:49:56;;;;;;;44.25;22.25;;;-1.60;94.90;;;;;;5057256;28;20033;-89
2021/03/04 04:52:22;;;;;;;45.33;23.88;;;-1.50;94.90;;;;;;5057082;28;20113;-93
2021/03/04 04:54:48;;;;;;;40.83;21.40;;;-1.60;95.30;;;;;;5066795;28;20045;-91
2021/03/04 04:57:14;;;;;;;42.17;21.25;;;-1.50;95.10;;;;;;5073650;28;20463;-90
2021/03/04 04:59:40;;;;;;;44.75;22.52;;;-1.50;95.00;;;;;;5073990;28;20024;-92
2021/03/04 05:02:05;;;;;;;39.95;21.40;;;-1.50;95.10;;;;;;5073752;28;20028;-93
2021/03/04 05:04:31;;;;;;;44.42;23.00;;;-1.50;95.00;;;;;;5074349;28;20020;-87
2021/03/04 05:06:57;;;;;;;44.78;21.85;;;-1.40;95.10;;;;;;5073440;28;20032;-88
2021/03/04 05:09:23;;;;;;;41.33;22.25;;;-1.40;95.10;;;;;;5073474;28;20481;-87
2021/03/04 05:11:48;;;;;;;39.47;21.10;;;-1.40;95.10;;;;;;5073355;28;20098;-87
2021/03/04 05:14:14;;;;;;;43.20;22.23;;;-1.30;95.00;;;;;;5074475;28;20463;-93
2021/03/04 05:16:40;;;;;;;43.63;22.17;;;-1.30;94.90;;;;;;5070307;28;20145;-87
2021/03/04 05:19:07;;;;;;;43.63;22.77;;;-1.20;95.00;;;;;;5081513;28;20113;-88
2021/03/04 05:21:33;;;;;;;41.25;21.15;;;-1.20;95.00;;;;;;5073256;28;20111;-89
2021/03/04 05:23:59;;;;;;;43.13;23.00;;;-1.10;95.10;;;;;;5072722;28;20483;-89
2021/03/04 05:26:24;;;;;;;40.17;20.88;;;-1.10;95.00;;;;;;5072565;28;20056;-89
2021/03/04 05:28:50;;;;;;;42.88;22.02;;;-1.00;95.00;;;;;;5073032;28;20028;-89
2021/03/04 05:31:16;;;;;;;42.92;21.00;;;-0.90;95.10;;;;;;5072300;28;20030;-89
2021/03/04 05:33:41;;;;;;;45.13;22.85;;;-0.90;95.10;;;;;;5072643;28;20020;-89
2021/03/04 05:36:08;;;;;;;54.67;23.25;;;-0.80;95.00;;;;;;5074622;28;20051;-89
2021/03/04 05:38:33;;;;;;;48.38;22.40;;;-0.80;95.00;;;;;;5074312;28;20463;-88
2021/03/04 05:40:59;;;;;;;45.50;23.08;;;-0.70;94.90;;;;;;5074032;28;20027;-92
2021/03/04 05:43:25;;;;;;;40.92;21.35;;;-0.60;94.80;;;;;;5074056;28;20074;-92
2021/03/04 05:45:52;;;;;;;44.22;22.75;;;-0.60;94.80;;;;;;5074205;28;20078;-92
2021/03/04 05:48:21;;;;;;;43.38;22.58;;;-0.60;94.70;;;;;;5074228;28;20032;-93
2021/03/04 05:50:51;;;;;;;41.40;22.83;;;-0.50;94.70;;;;;;5074051;28;20040;-93
2021/03/04 05:53:21;;;;;;;;;;;-0.50;94.70;;;;;;5073568;28;20425;-93
2021/03/04 05:55:48;;;;;;;46.28;22.05;;;-0.40;94.70;;;;;;5057423;28;20321;-93
2021/03/04 05:58:14;;;;;;;40.72;21.88;;;-0.40;94.80;;;;;;5057025;28;20020;-93
2021/03/04 06:00:44;;;;;;;46.15;23.63;;;-0.30;94.70;;;;;;5057178;28;20352;-93
2021/03/04 06:03:11;;;;;;;50.08;25.08;;;-0.30;94.60;;;;;;5055546;28;20044;-93
2021/03/04 06:05:37;;;;;;;52.13;25.63;;;-0.20;94.70;;;;;;5057598;28;20029;-92
2021/03/04 06:08:05;;;;;;;47.08;24.17;;;-0.20;94.70;;;;;;5056973;28;20032;-93
2021/03/04 06:10:31;;;;;;;50.80;24.50;;;-0.10;94.70;;;;;;5056808;28;20024;-92
2021/03/04 06:12:58;;;;;;;55.33;26.73;;;-0.10;94.70;;;;;;5056890;28;20497;-93
2021/03/04 06:15:24;;;;;;;51.88;25.95;;;0.00;94.60;;;;;;5056230;28;20094;-93
2021/03/04 06:17:55;;;;;;;63.78;29.02;;;0.20;94.50;;;;;;5057336;28;20471;-93
2021/03/04 06:20:21;;;;;;;68.78;29.55;;;0.20;94.30;;;;;;5056822;28;20050;-93
2021/03/04 06:22:48;;;;;;;56.47;26.83;;;0.30;94.20;;;;;;5057050;28;20035;-93
2021/03/04 06:25:14;;;;;;;63.08;29.83;;;0.30;94.20;;;;;;5056716;28;20071;-93
2021/03/04 06:27:42;;;;;;;65.50;29.75;;;0.40;94.20;;;;;;5057202;28;20031;-92
2021/03/04 06:30:10;;;;;;;57.85;27.92;;;0.50;94.20;;;;;;5057226;28;20467;-90
2021/03/04 06:32:39;;;;;;;54.28;26.90;;;0.50;94.10;;;;;;5057005;28;20031;-90
2021/03/04 06:35:13;;;;;;;59.63;26.60;;;0.60;94.00;;;;;;5056448;28;20383;-93
2021/03/04 06:37:41;;;;;;;55.88;27.90;;;0.70;93.90;;;;;;5055793;28;20115;-93
2021/03/04 06:40:23;;;;;;;65.38;30.55;;;0.80;93.90;;;;;;5055551;28;20025;-93
2021/03/04 06:42:50;;;;;;;59.50;27.73;;;0.90;93.80;;;;;;5054912;28;20024;-94
2021/03/04 06:45:36;;;;;;;49.25;24.52;;;0.90;93.80;;;;;;5055470;28;20115;-94
2021/03/04 06:48:21;;;;;;;50.42;25.85;;;1.00;93.80;;;;;;5056068;28;20028;-93
2021/03/04 06:50:49;;;;;;;44.30;23.25;;;1.10;93.70;;;;;;5055779;28;20078;-93
2021/03/04 06:53:22;;;;;;;43.80;22.48;;;1.20;93.70;;;;;;5055796;28;20028;-95
2021/03/04 06:55:50;;;;;;;41.92;21.63;;;1.30;93.80;;;;;;5056556;28;20536;-94
2021/03/04 06:58:27;;;;;;;37.80;21.70;;;1.40;93.70;;;;;;5063949;28;20024;-94
2021/03/04 07:01:12;;;;;;;45.20;22.35;;;1.50;93.30;;;;;;5056854;28;20025;-94
2021/03/04 07:03:51;;;;;;;42.83;20.88;;;1.50;93.40;;;;;;5055385;28;20044;-94
2021/03/04 07:06:18;;;;;;;39.03;20.08;;;1.60;93.30;;;;;;5055807;28;20028;-95
2021/03/04 07:08:49;;;;;;;35.75;19.70;;;1.70;93.40;;;;;;5055798;28;20020;-94
2021/03/04 07:11:17;;;;;;;40.03;19.20;;;1.80;93.10;;;;;;5056225;28;20037;-93
2021/03/04 07:13:44;;;;;;;33.75;19.98;;;1.90;93.00;;;;;;5055867;28;20024;-95
2021/03/04 07:16:15;;;;;;;37.55;19.15;;;2.10;92.70;;;;;;5053672;28;20033;-95
2021/03/04 07:18:53;;;;;;;40.65;21.45;;;2.10;92.60;;;;;;5055947;28;20020;-94
2021/03/04 07:21:20;;;;;;;40.22;20.15;;;2.20;92.80;;;;;;5055537;28;20059;-92
2021/03/04 07:23:46;;;;;;;41.40;20.25;;;2.40;92.70;;;;;;5055788;28;20035;-95
2021/03/04 07:26:14;;;;;;;38.22;20.40;;;2.40;92.40;;;;;;5055717;28;20111;-95
2021/03/04 07:28:42;;;;;;;38.90;20.75;;;2.50;92.20;;;;;;5055950;28;20021;-95
2021/03/04 07:31:10;;;;;;;37.63;20.38;;;2.60;92.20;;;;;;5056095;28;20047;-95
2021/03/04 07:33:38;;;;;;;41.25;22.65;;;2.70;92.10;;;;;;5055962;28;20020;-95
2021/03/04 07:36:09;;;;;;;33.70;19.42;;;2.80;92.10;;;;;;5055989;28;20521;-95
2021/03/04 07:38:35;;;;;;;35.55;19.25;;;2.90;91.90;;;;;;5059994;28;20075;-96
2021/03/04 07:41:03;;;;;;;39.88;20.75;;;3.00;91.90;;;;;;5059934;28;20023;-95
2021/03/04 07:43:29;;;;;;;42.95;20.80;;;3.10;91.80;;;;;;5059822;28;20016;-94
2021/03/04 07:45:55;;;;;;;44.08;23.63;;;3.20;91.40;;;;;;5059908;28;20024;-94
2021/03/04 07:48:21;;;;;;;43.65;20.85;;;3.30;90.40;;;;;;5059692;28;20052;-94
2021/03/04 07:51:01;;;;;;;40.78;21.90;;;3.40;91.20;;;;;;5059802;28;20087;-95
2021/03/04 07:53:27;;;;;;;47.35;25.85;;;3.50;91.10;;;;;;5059659;28;20024;-94
2021/03/04 07:55:53;;;;;;;38.13;21.20;;;3.60;90.40;;;;;;5059828;28;20055;-95
2021/03/04 07:58:19;;;;;;;43.47;22.05;;;3.70;91.00;;;;;;5059705;28;20554;-96
2021/03/04 08:00:45;;;;;;;47.20;24.77;;;3.80;90.80;;;;;;5059828;28;20123;-95
2021/03/04 08:03:11;;;;;;;70.93;41.78;;;3.90;90.50;;;;;;5059563;28;20360;-95
2021/03/04 08:05:39;;;;;;;52.08;27.10;;;4.00;90.20;;;;;;5059467;28;20078;-96
2021/03/04 08:08:17;;;;;;;57.95;29.08;;;4.00;90.10;;;;;;5059527;28;20025;-94
2021/03/04 08:10:56;;;;;;;50.22;24.77;;;4.20;90.30;;;;;;5059257;28;20092;-94
2021/03/04 08:13:32;;;;;;;74.35;45.08;;;4.30;90.30;;;;;;5059346;28;20475;-95
2021/03/04 08:15:58;;;;;;;50.05;26.98;;;4.40;88.60;;;;;;5059250;28;20371;-94
2021/03/04 08:18:28;;;;;;;50.35;25.63;;;4.50;89.10;;;;;;5059346;28;20390;-94
2021/03/04 08:21:05;;;;;;;46.95;24.75;;;4.60;89.00;;;;;;5058887;28;20422;-92
2021/03/04 08:23:31;;;;;;;45.10;23.80;;;4.70;88.40;;;;;;5058956;28;20029;-94
2021/03/04 08:26:00;;;;;;;56.83;28.38;;;4.70;88.00;;;;;;5059133;28;20028;-94
2021/03/04 08:28:28;;;;;;;55.72;29.00;;;4.80;87.70;;;;;;5059689;28;20387;-94
2021/03/04 08:30:55;;;;;;;54.85;27.60;;;4.80;87.50;;;;;;5059122;28;20031;-94
2021/03/04 08:33:21;;;;;;;64.28;31.38;;;4.90;85.60;;;;;;5059044;28;20024;-93
2021/03/04 08:35:49;;;;;;;47.25;24.60;;;5.00;87.20;;;;;;5059712;28;20127;-93
2021/03/04 08:38:17;;;;;;;54.60;28.77;;;5.20;87.00;;;;;;5070911;28;20079;-92
2021/03/04 08:40:48;;;;;;;44.33;23.90;;;5.20;85.80;;;;;;5064879;28;20032;-93
2021/03/04 08:43:25;;;;;;;53.42;28.88;;;5.30;85.40;;;;;;5057399;28;20020;-94
2021/03/04 08:46:04;;;;;;;44.08;25.40;;;5.40;83.20;;;;;;5057031;28;20090;-94
2021/03/04 08:48:30;;;;;;;43.70;24.38;;;5.40;83.90;;;;;;5059609;28;20471;-92
2021/03/04 08:51:00;;;;;;;45.97;25.90;;;5.50;83.20;;;;;;5074404;28;20038;-94
2021/03/04 08:53:29;;;;;;;43.35;23.08;;;5.60;84.40;;;;;;5057296;28;20660;-93
2021/03/04 08:56:00;;;;;;;44.95;25.73;;;5.70;84.10;;;;;;5056888;28;20024;-94
2021/03/04 08:58:29;;;;;;;47.70;24.92;;;5.80;83.80;;;;;;5057027;28;20016;-94
2021/03/04 09:01:00;;;;;;;41.50;23.15;;;5.80;83.50;;;;;;5057265;28;20029;-94
2021/03/04 09:03:28;;;;;;;44.03;24.67;;;5.90;82.10;;;;;;5057161;28;20020;-93
2021/03/04 09:06:10;;;;;;;40.13;22.55;;;6.00;81.10;;;;;;5056787;28;20029;-93
2021/03/04 09:08:39;;;;;;;43.22;24.05;;;6.10;81.10;;;;;;5056645;28;20020;-94
2021/03/04 09:11:08;;;;;;;39.30;22.13;;;6.20;82.00;;;;;;5055902;28;20435;-94
2021/03/04 09:13:35;;;;;;;37.15;19.80;;;6.20;81.10;;;;;;5056830;28;20362;-93
2021/03/04 09:16:05;;;;;;;40.80;21.88;;;6.20;81.10;;;;;;5056601;28;20397;-94
2021/03/04 09:18:40;;;;;;;38.40;22.17;;;6.40;81.40;;;;;;5056794;28;20421;-92
2021/03/04 09:21:11;;;;;;;48.35;25.88;;;6.40;79.30;;;;;;5056677;28;20020;-93
2021/03/04 09:23:37;;;;;;;45.33;24.98;;;6.50;79.40;;;;;;5056755;28;20028;-94
2021/03/04 09:26:03;;;;;;;45.65;24.88;;;6.60;79.80;;;;;;5056788;28;20421;-94
2021/03/04 09:28:30;;;;;;;43.97;24.60;;;6.70;79.70;;;;;;5056883;28;20081;-93
2021/03/04 09:30:56;;;;;;;38.45;20.75;;;6.80;78.50;;;;;;5074109;28;20024;-93
2021/03/04 09:33:24;;;;;;;34.78;19.40;;;6.90;78.90;;;;;;5056315;28;20031;-93
2021/03/04 09:35:58;;;;;;;40.78;22.30;;;6.90;78.10;;;;;;5056958;28;20032;-93
2021/03/04 09:38:26;;;;;;;42.08;22.17;;;7.00;78.30;;;;;;5057288;28;20539;-94
2021/03/04 09:40:52;;;;;;;42.70;22.15;;;7.00;77.00;;;;;;5057306;28;20021;-93
2021/03/04 09:43:20;;;;;;;35.95;20.23;;;7.00;77.30;;;;;;5057372;28;20028;-93
2021/03/04 09:45:51;;;;;;;38.63;20.13;;;7.10;76.70;;;;;;5057547;28;20028;-93
2021/03/04 09:48:29;;;;;;;32.97;19.50;;;7.10;76.40;;;;;;5057658;28;20040;-92
2021/03/04 09:50:55;;;;;;;36.38;19.98;;;7.20;76.80;;;;;;5057317;28;20021;-92
2021/03/04 09:53:21;;;;;;;40.08;20.38;;;7.30;77.10;;;;;;5056981;28;20033;-93
2021/03/04 09:55:47;;;;;;;45.42;20.95;;;7.30;75.60;;;;;;5057135;28;20025;-93
2021/03/04 09:58:22;;;;;;;38.20;19.77;;;7.30;75.40;;;;;;5057328;28;20032;-92
2021/03/04 10:00:59;;;;;;;37.28;20.77;;;7.40;76.20;;;;;;5056369;28;20024;-93
2021/03/04 10:03:38;;;;;;;37.55;18.80;;;7.40;75.40;;;;;;5057185;28;20051;-93
2021/03/04 10:06:07;;;;;;;34.58;19.70;;;7.40;74.60;;;;;;5057072;28;20055;-93
2021/03/04 10:08:43;;;;;;;44.28;23.25;;;7.40;75.90;;;;;;5057216;28;20031;-93
2021/03/04 10:11:21;;;;;;;40.13;24.30;;;7.50;76.40;;;;;;5058450;28;20070;-94
2021/03/04 10:13:47;;;;;;;35.60;20.40;;;7.60;75.40;;;;;;5058234;28;20040;-93
2021/03/04 10:16:13;;;;;;;36.17;19.85;;;7.70;76.10;;;;;;5057990;28;20037;-93
2021/03/04 10:18:47;;;;;;;30.92;18.40;;;7.70;75.70;;;;;;5075331;28;20028;-91
2021/03/04 10:21:18;;;;;;;38.65;20.25;;;7.80;75.80;;;;;;5063229;28;20028;-96
2021/03/04 10:23:48;;;;;;;34.05;17.60;;;7.80;74.10;;;;;;5057673;28;20031;-96
2021/03/04 10:26:15;;;;;;;38.42;19.88;;;7.80;75.10;;;;;;5061429;28;20178;-92
2021/03/04 10:28:41;;;;;;;34.75;18.58;;;7.80;74.70;;;;;;5057960;28;20032;-96
2021/03/04 10:31:06;;;;;;;36.17;18.02;;;7.70;74.90;;;;;;5058434;28;20024;-96
2021/03/04 10:33:32;;;;;;;29.08;16.55;;;7.70;75.00;;;;;;5058462;28;20025;-94
2021/03/04 10:35:58;;;;;;;34.15;17.58;;;7.80;74.90;;;;;;5058820;28;20028;-94
2021/03/04 10:38:24;;;;;;;30.33;17.52;;;7.80;75.30;;;;;;5063473;28;20051;-94
2021/03/04 10:40:50;;;;;;;32.97;18.33;;;7.90;75.00;;;;;;5056558;28;20017;-95
2021/03/04 10:43:16;;;;;;;32.92;17.83;;;7.90;74.10;;;;;;5061193;28;20084;-90
2021/03/04 10:45:42;;;;;;;34.10;18.30;;;7.90;74.70;;;;;;5065964;28;20029;-94
2021/03/04 10:48:09;;;;;;;29.48;18.35;;;7.90;74.40;;;;;;5062821;28;20029;-93
2021/03/04 10:50:35;;;;;;;36.13;18.00;;;7.90;74.30;;;;;;5057425;28;20116;-93
2021/03/04 10:53:01;;;;;;;33.90;18.73;;;7.90;74.60;;;;;;5061024;28;20113;-96
2021/03/04 10:55:28;;;;;;;34.80;18.30;;;7.90;73.50;;;;;;5061524;28;20047;-96
2021/03/04 10:58:20;;;;;;;29.58;17.98;;;7.90;74.60;;;;;;5063799;28;20012;-93
2021/03/04 11:00:46;;;;;;;34.67;18.85;;;7.90;75.00;;;;;;5073258;28;20032;-95
2021/03/04 11:03:12;;;;;;;29.30;16.77;;;7.90;73.50;;;;;;5056507;28;20098;-96
2021/03/04 11:05:38;;;;;;;31.13;18.65;;;8.00;74.80;;;;;;5058148;28;20024;-95
2021/03/04 11:08:04;;;;;;;32.03;18.98;;;8.10;74.60;;;;;;5055863;28;20036;-95
2021/03/04 11:10:29;;;;;;;29.55;17.20;;;8.10;73.90;;;;;;5056801;28;20024;-93
2021/03/04 11:12:55;;;;;;;30.80;18.30;;;8.10;74.50;;;;;;5058636;28;20494;-94
2021/03/04 11:15:21;;;;;;;33.83;18.00;;;8.20;74.00;;;;;;5058651;28;20497;-94
2021/03/04 11:17:47;;;;;;;32.40;18.27;;;8.20;74.30;;;;;;5060420;28;20112;-94
2021/03/04 11:20:12;;;;;;;38.47;19.75;;;8.10;74.10;;;;;;5058702;28;20494;-93
2021/03/04 11:22:38;;;;;;;50.60;26.92;;;8.20;74.20;;;;;;5058957;28;20055;-93
2021/03/04 11:25:04;;;;;;;48.05;23.80;;;8.20;74.00;;;;;;5058758;28;20521;-94
2021/03/04 11:27:30;;;;;;;41.05;22.42;;;8.20;73.80;;;;;;5060733;28;20024;-92
2021/03/04 11:29:56;;;;;;;39.90;21.92;;;8.20;74.20;;;;;;5065288;28;20044;-92
2021/03/04 11:32:22;;;;;;;35.92;20.42;;;8.30;74.20;;;;;;5058860;28;20043;-94
2021/03/04 11:34:48;;;;;;;35.35;19.15;;;8.40;74.10;;;;;;5057858;28;20060;-93
2021/03/04 11:37:13;;;;;;;35.70;20.38;;;8.50;73.90;;;;;;5060511;28;20020;-88
2021/03/04 11:39:39;;;;;;;35.83;19.88;;;8.50;73.00;;;;;;5060027;28;20463;-93
2021/03/04 11:42:05;;;;;;;34.05;18.65;;;8.60;73.80;;;;;;5059649;28;20024;-93
2021/03/04 11:44:31;;;;;;;36.67;20.30;;;8.60;73.50;;;;;;5059916;28;20062;-91
2021/03/04 11:46:57;;;;;;;31.35;19.25;;;8.70;73.10;;;;;;5059378;28;20024;-93
2021/03/04 11:49:23;;;;;;;34.40;20.70;;;8.70;73.20;;;;;;5060099;28;20024;-92
2021/03/04 11:51:49;;;;;;;33.13;19.67;;;8.70;72.90;;;;;;5059404;28;20485;-93
2021/03/04 11:54:15;;;;;;;33.25;18.50;;;8.80;73.10;;;;;;5060821;28;20048;-92
2021/03/04 11:56:40;;;;;;;33.75;20.65;;;8.90;73.00;;;;;;5066884;28;20023;-92
2021/03/04 11:59:11;;;;;;;32.45;19.05;;;8.80;72.40;;;;;;5069074;28;20120;-91
2021/03/04 12:01:38;;;;;;;34.10;19.80;;;8.90;72.50;;;;;;5059720;28;20158;-92
2021/03/04 12:04:04;;;;;;;33.53;19.27;;;8.90;72.10;;;;;;5059621;28;20024;-90
2021/03/04 12:06:30;;;;;;;31.75;19.05;;;8.90;72.60;;;;;;5059476;28;20039;-90
2021/03/04 12:08:56;;;;;;;32.92;18.70;;;8.90;72.30;;;;;;5059612;28;20458;-90
2021/03/04 12:11:21;;;;;;;33.53;20.30;;;9.00;71.90;;;;;;5059625;28;20028;-91
2021/03/04 12:13:47;;;;;;;35.47;21.50;;;8.90;72.00;;;;;;5059780;28;20111;-93
2021/03/04 12:16:13;;;;;;;45.95;26.52;;;8.90;72.30;;;;;;5058360;28;20032;-91
2021/03/04 12:18:39;;;;;;;42.15;21.27;;;8.90;71.90;;;;;;5058339;28;20020;-92
2021/03/04 12:21:05;;;;;;;35.08;20.08;;;8.90;71.90;;;;;;5057409;28;20021;-90
2021/03/04 12:23:31;;;;;;;31.33;18.48;;;9.00;71.90;;;;;;5057235;28;20023;-91
2021/03/04 12:25:57;;;;;;;34.15;20.13;;;9.10;72.00;;;;;;5058063;28;20024;-91
2021/03/04 12:28:23;;;;;;;37.05;20.70;;;9.10;71.60;;;;;;5058208;28;20040;-92
2021/03/04 12:30:49;;;;;;;31.98;19.38;;;9.10;71.50;;;;;;5057618;28;20032;-91
2021/03/04 12:33:15;;;;;;;33.75;20.15;;;9.10;71.10;;;;;;5057993;28;20028;-92
2021/03/04 12:35:41;;;;;;;34.55;20.38;;;9.10;71.50;;;;;;5057023;28;20028;-92
2021/03/04 12:38:08;;;;;;;36.30;20.40;;;9.10;71.80;;;;;;5056334;28;20032;-92